sensor_id;sensor_type;location;lat;lon;timestamp;temperature;humidity
27896;DHT22;15241;48.374;10.876;2022-11-15T00:01:24;7.60;99.90
27896;DHT22;15241;48.374;10.876;2022-11-15T00:06:23;7.50;99.90
27896;DHT22;15241;48.374;10.876;2022-11-15T00:11:22;7.40;99.90
27896;DHT22;15241;48.374;10.876;2022-11-15T00:16:21;7.50;99.90
27896;DHT22;15241;48.374;10.876;2022-11-15T00:21:19;7.40;99.90
27896;DHT22;15241;48.374;10.876;2022-11-15T00:26:18;7.50;99.90
27896;DHT22;15241;48.374;10.876;2022-11-15T00:31:18;7.50;99.90
27896;DHT22;15241;48.374;10.876;2022-11-15T00:36:17;7.50;99.90
27896;DHT22;15241;48.374;10.876;2022-11-15T00:41:16;7.50;99.90
27896;DHT22;15241;48.374;10.876;2022-11-15T00:46:14;7.40;99.90
27896;DHT22;15241;48.374;10.876;2022-11-15T00:51:13;7.50;99.90
27896;DHT22;15241;48.374;10.876;2022-11-15T00:56:12;7.50;99.90
27896;DHT22;15241;48.374;10.876;2022-11-15T01:01:13;7.50;99.90
27896;DHT22;15241;48.374;10.876;2022-11-15T01:06:12;7.50;99.90
27896;DHT22;15241;48.374;10.876;2022-11-15T01:11:12;7.60;99.90
27896;DHT22;15241;48.374;10.876;2022-11-15T01:16:13;7.60;99.90
27896;DHT22;15241;48.374;10.876;2022-11-15T01:21:14;7.60;99.90
27896;DHT22;15241;48.374;10.876;2022-11-15T01:26:14;7.60;99.90
27896;DHT22;15241;48.374;10.876;2022-11-15T01:31:16;7.50;99.90
27896;DHT22;15241;48.374;10.876;2022-11-15T01:36:16;7.50;99.90
27896;DHT22;15241;48.374;10.876;2022-11-15T01:41:20;7.40;99.90
27896;DHT22;15241;48.374;10.876;2022-11-15T01:46:22;7.30;99.90
27896;DHT22;15241;48.374;10.876;2022-11-15T01:51:24;7.20;99.90
27896;DHT22;15241;48.374;10.876;2022-11-15T01:56:25;7.10;99.90
27896;DHT22;15241;48.374;10.876;2022-11-15T02:01:26;7.10;99.90
27896;DHT22;15241;48.374;10.876;2022-11-15T02:06:26;7.00;99.90
27896;DHT22;15241;48.374;10.876;2022-11-15T02:11:25;6.90;99.90
27896;DHT22;15241;48.374;10.876;2022-11-15T02:16:28;6.90;99.90
27896;DHT22;15241;48.374;10.876;2022-11-15T02:27:27;6.80;99.90
27896;DHT22;15241;48.374;10.876;2022-11-15T02:32:28;6.80;99.90
27896;DHT22;15241;48.374;10.876;2022-11-15T02:37:33;6.70;99.90
27896;DHT22;15241;48.374;10.876;2022-11-15T02:52:49;6.60;99.90
27896;DHT22;15241;48.374;10.876;2022-11-15T02:57:51;6.60;99.90
27896;DHT22;15241;48.374;10.876;2022-11-15T03:03:04;6.50;99.90
27896;DHT22;15241;48.374;10.876;2022-11-15T03:13:19;6.50;99.90
27896;DHT22;15241;48.374;10.876;2022-11-15T03:18:19;6.40;99.90
27896;DHT22;15241;48.374;10.876;2022-11-15T03:23:19;6.40;99.90
27896;DHT22;15241;48.374;10.876;2022-11-15T03:28:22;6.30;99.90
27896;DHT22;15241;48.374;10.876;2022-11-15T03:33:22;6.30;99.90
27896;DHT22;15241;48.374;10.876;2022-11-15T03:38:23;6.20;99.90
27896;DHT22;15241;48.374;10.876;2022-11-15T03:48:34;6.10;99.90
27896;DHT22;15241;48.374;10.876;2022-11-15T03:53:34;6.10;99.90
27896;DHT22;15241;48.374;10.876;2022-11-15T03:58:33;5.90;99.90
27896;DHT22;15241;48.374;10.876;2022-11-15T04:03:32;5.90;99.90
27896;DHT22;15241;48.374;10.876;2022-11-15T04:08:30;5.90;99.90
27896;DHT22;15241;48.374;10.876;2022-11-15T04:13:29;5.90;99.90
27896;DHT22;15241;48.374;10.876;2022-11-15T04:18:28;5.80;99.90
27896;DHT22;15241;48.374;10.876;2022-11-15T04:23:27;5.80;99.90
27896;DHT22;15241;48.374;10.876;2022-11-15T04:28:26;5.80;99.90
27896;DHT22;15241;48.374;10.876;2022-11-15T04:33:25;5.70;99.90
27896;DHT22;15241;48.374;10.876;2022-11-15T04:38:24;5.70;99.90
27896;DHT22;15241;48.374;10.876;2022-11-15T04:43:23;5.60;99.90
27896;DHT22;15241;48.374;10.876;2022-11-15T04:48:22;5.60;99.90
27896;DHT22;15241;48.374;10.876;2022-11-15T04:53:21;5.60;99.90
27896;DHT22;15241;48.374;10.876;2022-11-15T04:58:20;5.60;99.90
27896;DHT22;15241;48.374;10.876;2022-11-15T05:03:18;5.50;99.90
27896;DHT22;15241;48.374;10.876;2022-11-15T05:08:17;5.50;99.90
27896;DHT22;15241;48.374;10.876;2022-11-15T05:13:16;5.40;99.90
27896;DHT22;15241;48.374;10.876;2022-11-15T05:18:15;5.40;99.90
27896;DHT22;15241;48.374;10.876;2022-11-15T05:23:14;5.40;99.90
27896;DHT22;15241;48.374;10.876;2022-11-15T05:28:13;5.40;99.90
27896;DHT22;15241;48.374;10.876;2022-11-15T05:33:12;5.30;99.90
27896;DHT22;15241;48.374;10.876;2022-11-15T05:38:11;5.30;99.90
27896;DHT22;15241;48.374;10.876;2022-11-15T05:43:10;5.20;99.90
27896;DHT22;15241;48.374;10.876;2022-11-15T05:48:10;5.20;99.90
27896;DHT22;15241;48.374;10.876;2022-11-15T05:53:09;5.10;99.90
27896;DHT22;15241;48.374;10.876;2022-11-15T05:58:09;5.20;99.90
27896;DHT22;15241;48.374;10.876;2022-11-15T06:03:08;5.10;99.90
27896;DHT22;15241;48.374;10.876;2022-11-15T06:08:07;5.10;99.90
27896;DHT22;15241;48.374;10.876;2022-11-15T06:13:06;5.10;99.90
27896;DHT22;15241;48.374;10.876;2022-11-15T06:18:05;5.10;99.90
27896;DHT22;15241;48.374;10.876;2022-11-15T06:23:05;5.10;99.90
27896;DHT22;15241;48.374;10.876;2022-11-15T06:28:04;5.10;99.90
27896;DHT22;15241;48.374;10.876;2022-11-15T06:33:04;5.10;99.90
27896;DHT22;15241;48.374;10.876;2022-11-15T06:38:05;5.10;99.90
27896;DHT22;15241;48.374;10.876;2022-11-15T06:43:05;5.10;99.90
27896;DHT22;15241;48.374;10.876;2022-11-15T06:48:05;5.10;99.90
27896;DHT22;15241;48.374;10.876;2022-11-15T06:53:04;5.20;99.90
27896;DHT22;15241;48.374;10.876;2022-11-15T06:58:03;5.10;99.90
27896;DHT22;15241;48.374;10.876;2022-11-15T07:03:02;5.20;99.90
27896;DHT22;15241;48.374;10.876;2022-11-15T07:08:02;5.20;99.90
27896;DHT22;15241;48.374;10.876;2022-11-15T07:13:01;5.20;99.90
27896;DHT22;15241;48.374;10.876;2022-11-15T07:18:02;5.30;99.90
27896;DHT22;15241;48.374;10.876;2022-11-15T07:23:01;5.20;99.90
27896;DHT22;15241;48.374;10.876;2022-11-15T07:28:01;5.40;99.90
27896;DHT22;15241;48.374;10.876;2022-11-15T07:33:00;5.50;99.90
27896;DHT22;15241;48.374;10.876;2022-11-15T07:38:01;5.50;99.90
27896;DHT22;15241;48.374;10.876;2022-11-15T07:43:00;5.60;99.90
27896;DHT22;15241;48.374;10.876;2022-11-15T07:48:00;5.70;99.90
27896;DHT22;15241;48.374;10.876;2022-11-15T07:52:59;5.80;99.90
27896;DHT22;15241;48.374;10.876;2022-11-15T07:58:02;6.00;99.90
27896;DHT22;15241;48.374;10.876;2022-11-15T08:03:05;6.10;99.90
27896;DHT22;15241;48.374;10.876;2022-11-15T08:08:06;6.30;99.90
27896;DHT22;15241;48.374;10.876;2022-11-15T08:13:07;6.40;99.90
27896;DHT22;15241;48.374;10.876;2022-11-15T08:18:09;6.60;99.90
27896;DHT22;15241;48.374;10.876;2022-11-15T08:23:11;6.80;99.90
27896;DHT22;15241;48.374;10.876;2022-11-15T08:28:11;6.90;99.90
27896;DHT22;15241;48.374;10.876;2022-11-15T08:33:12;7.20;99.90
27896;DHT22;15241;48.374;10.876;2022-11-15T08:38:11;7.40;99.90
27896;DHT22;15241;48.374;10.876;2022-11-15T08:43:10;7.60;99.90
27896;DHT22;15241;48.374;10.876;2022-11-15T08:48:09;7.80;99.90
27896;DHT22;15241;48.374;10.876;2022-11-15T08:53:09;7.90;99.90
27896;DHT22;15241;48.374;10.876;2022-11-15T08:58:08;8.00;99.90
27896;DHT22;15241;48.374;10.876;2022-11-15T09:03:07;8.20;99.90
27896;DHT22;15241;48.374;10.876;2022-11-15T09:08:06;8.40;99.90
27896;DHT22;15241;48.374;10.876;2022-11-15T09:13:05;8.60;99.90
27896;DHT22;15241;48.374;10.876;2022-11-15T09:18:04;8.80;99.90
27896;DHT22;15241;48.374;10.876;2022-11-15T09:23:04;8.90;99.90
27896;DHT22;15241;48.374;10.876;2022-11-15T09:28:07;9.00;99.90
27896;DHT22;15241;48.374;10.876;2022-11-15T09:33:09;9.10;99.90
27896;DHT22;15241;48.374;10.876;2022-11-15T09:38:09;9.20;99.90
27896;DHT22;15241;48.374;10.876;2022-11-15T09:43:24;9.30;99.90
27896;DHT22;15241;48.374;10.876;2022-11-15T09:48:37;9.40;99.90
27896;DHT22;15241;48.374;10.876;2022-11-15T09:53:39;9.80;99.90
27896;DHT22;15241;48.374;10.876;2022-11-15T09:58:42;10.10;99.90
27896;DHT22;15241;48.374;10.876;2022-11-15T10:03:43;10.50;99.90
27896;DHT22;15241;48.374;10.876;2022-11-15T10:08:51;11.50;99.90
27896;DHT22;15241;48.374;10.876;2022-11-15T10:13:53;17.70;99.90
27896;DHT22;15241;48.374;10.876;2022-11-15T10:18:56;23.20;99.80
27896;DHT22;15241;48.374;10.876;2022-11-15T10:23:54;27.00;81.70
27896;DHT22;15241;48.374;10.876;2022-11-15T10:28:52;30.10;65.30
27896;DHT22;15241;48.374;10.876;2022-11-15T10:33:53;33.10;53.60
27896;DHT22;15241;48.374;10.876;2022-11-15T10:38:54;35.50;44.40
27896;DHT22;15241;48.374;10.876;2022-11-15T10:44:12;36.70;41.10
27896;DHT22;15241;48.374;10.876;2022-11-15T10:49:15;38.80;37.40
27896;DHT22;15241;48.374;10.876;2022-11-15T10:54:17;40.10;33.90
27896;DHT22;15241;48.374;10.876;2022-11-15T10:59:21;41.80;32.10
27896;DHT22;15241;48.374;10.876;2022-11-15T11:04:18;42.80;30.00
27896;DHT22;15241;48.374;10.876;2022-11-15T11:09:28;44.30;29.00
27896;DHT22;15241;48.374;10.876;2022-11-15T11:14:29;44.30;27.30
27896;DHT22;15241;48.374;10.876;2022-11-15T11:25:02;45.40;27.00
27896;DHT22;15241;48.374;10.876;2022-11-15T11:30:08;46.30;26.00
27896;DHT22;15241;48.374;10.876;2022-11-15T11:35:12;45.70;25.20
27896;DHT22;15241;48.374;10.876;2022-11-15T11:40:19;46.20;25.00
27896;DHT22;15241;48.374;10.876;2022-11-15T11:50:27;46.90;24.80
27896;DHT22;15241;48.374;10.876;2022-11-15T11:55:29;46.50;24.90
27896;DHT22;15241;48.374;10.876;2022-11-15T12:00:29;46.20;24.70
27896;DHT22;15241;48.374;10.876;2022-11-15T12:05:34;46.40;24.50
27896;DHT22;15241;48.374;10.876;2022-11-15T12:10:34;47.90;24.40
27896;DHT22;15241;48.374;10.876;2022-11-15T12:15:37;48.50;23.30
27896;DHT22;15241;48.374;10.876;2022-11-15T12:20:38;48.70;23.20
27896;DHT22;15241;48.374;10.876;2022-11-15T12:25:41;48.30;23.60
27896;DHT22;15241;48.374;10.876;2022-11-15T12:30:45;48.10;24.00
27896;DHT22;15241;48.374;10.876;2022-11-15T12:35:44;48.60;23.20
27896;DHT22;15241;48.374;10.876;2022-11-15T12:41:13;48.30;23.00
27896;DHT22;15241;48.374;10.876;2022-11-15T12:46:12;48.00;22.90
27896;DHT22;15241;48.374;10.876;2022-11-15T12:51:12;47.80;23.50
27896;DHT22;15241;48.374;10.876;2022-11-15T12:56:19;47.80;23.60
27896;DHT22;15241;48.374;10.876;2022-11-15T13:06:54;47.00;23.90
27896;DHT22;15241;48.374;10.876;2022-11-15T13:11:54;45.70;23.50
27896;DHT22;15241;48.374;10.876;2022-11-15T13:16:58;44.10;25.00
27896;DHT22;15241;48.374;10.876;2022-11-15T13:21:57;42.70;25.80
27896;DHT22;15241;48.374;10.876;2022-11-15T13:26:55;42.50;26.30
27896;DHT22;15241;48.374;10.876;2022-11-15T13:31:54;42.10;26.60
27896;DHT22;15241;48.374;10.876;2022-11-15T13:36:53;41.70;26.70
27896;DHT22;15241;48.374;10.876;2022-11-15T13:41:53;40.40;27.70
27896;DHT22;15241;48.374;10.876;2022-11-15T13:47:03;38.70;28.50
27896;DHT22;15241;48.374;10.876;2022-11-15T13:52:05;37.20;29.20
27896;DHT22;15241;48.374;10.876;2022-11-15T14:02:18;32.50;33.60
27896;DHT22;15241;48.374;10.876;2022-11-15T14:12:31;28.10;39.20
27896;DHT22;15241;48.374;10.876;2022-11-15T14:17:37;25.80;44.80
27896;DHT22;15241;48.374;10.876;2022-11-15T14:22:36;23.80;48.30
27896;DHT22;15241;48.374;10.876;2022-11-15T14:27:35;22.40;51.30
27896;DHT22;15241;48.374;10.876;2022-11-15T14:32:41;21.50;53.10
27896;DHT22;15241;48.374;10.876;2022-11-15T14:37:41;20.60;54.80
27896;DHT22;15241;48.374;10.876;2022-11-15T14:42:39;20.00;56.20
27896;DHT22;15241;48.374;10.876;2022-11-15T14:47:39;19.50;57.40
27896;DHT22;15241;48.374;10.876;2022-11-15T14:52:37;18.90;61.70
27896;DHT22;15241;48.374;10.876;2022-11-15T14:57:36;18.60;64.50
27896;DHT22;15241;48.374;10.876;2022-11-15T15:02:35;18.20;68.90
27896;DHT22;15241;48.374;10.876;2022-11-15T15:07:34;17.60;67.80
27896;DHT22;15241;48.374;10.876;2022-11-15T15:12:34;17.10;69.50
27896;DHT22;15241;48.374;10.876;2022-11-15T15:17:32;16.70;70.30
27896;DHT22;15241;48.374;10.876;2022-11-15T15:22:32;16.30;72.60
27896;DHT22;15241;48.374;10.876;2022-11-15T15:27:31;15.90;75.80
27896;DHT22;15241;48.374;10.876;2022-11-15T15:32:30;15.50;76.70
27896;DHT22;15241;48.374;10.876;2022-11-15T15:37:29;15.20;80.40
27896;DHT22;15241;48.374;10.876;2022-11-15T15:42:28;14.80;82.90
27896;DHT22;15241;48.374;10.876;2022-11-15T15:47:27;14.50;86.40
27896;DHT22;15241;48.374;10.876;2022-11-15T15:52:26;14.30;90.00
27896;DHT22;15241;48.374;10.876;2022-11-15T15:57:25;14.00;91.30
27896;DHT22;15241;48.374;10.876;2022-11-15T16:02:24;13.80;93.10
27896;DHT22;15241;48.374;10.876;2022-11-15T16:07:23;13.60;94.70
27896;DHT22;15241;48.374;10.876;2022-11-15T16:12:22;13.40;96.40
27896;DHT22;15241;48.374;10.876;2022-11-15T16:17:22;13.30;98.10
27896;DHT22;15241;48.374;10.876;2022-11-15T16:22:22;13.10;99.60
27896;DHT22;15241;48.374;10.876;2022-11-15T16:27:21;13.00;99.90
27896;DHT22;15241;48.374;10.876;2022-11-15T16:32:20;12.90;99.90
27896;DHT22;15241;48.374;10.876;2022-11-15T16:37:22;12.80;99.90
27896;DHT22;15241;48.374;10.876;2022-11-15T16:42:21;12.70;99.90
27896;DHT22;15241;48.374;10.876;2022-11-15T16:47:20;12.60;99.90
27896;DHT22;15241;48.374;10.876;2022-11-15T16:52:20;12.50;99.90
27896;DHT22;15241;48.374;10.876;2022-11-15T16:57:19;12.40;99.90
27896;DHT22;15241;48.374;10.876;2022-11-15T17:02:17;12.40;99.90
27896;DHT22;15241;48.374;10.876;2022-11-15T17:07:16;12.30;99.90
27896;DHT22;15241;48.374;10.876;2022-11-15T17:12:15;12.20;99.90
27896;DHT22;15241;48.374;10.876;2022-11-15T17:17:14;12.10;99.90
27896;DHT22;15241;48.374;10.876;2022-11-15T17:22:13;12.00;99.90
27896;DHT22;15241;48.374;10.876;2022-11-15T17:27:12;12.00;99.90
27896;DHT22;15241;48.374;10.876;2022-11-15T17:32:11;11.90;99.90
27896;DHT22;15241;48.374;10.876;2022-11-15T17:37:10;11.90;99.90
27896;DHT22;15241;48.374;10.876;2022-11-15T17:42:09;11.80;99.90
27896;DHT22;15241;48.374;10.876;2022-11-15T17:47:08;11.80;99.90
27896;DHT22;15241;48.374;10.876;2022-11-15T17:52:07;11.80;99.90
27896;DHT22;15241;48.374;10.876;2022-11-15T17:57:06;11.70;99.90
27896;DHT22;15241;48.374;10.876;2022-11-15T18:02:05;11.60;99.90
27896;DHT22;15241;48.374;10.876;2022-11-15T18:07:04;11.60;99.90
27896;DHT22;15241;48.374;10.876;2022-11-15T18:12:03;11.60;99.90
27896;DHT22;15241;48.374;10.876;2022-11-15T18:17:02;11.60;99.90
27896;DHT22;15241;48.374;10.876;2022-11-15T18:22:01;11.60;99.90
27896;DHT22;15241;48.374;10.876;2022-11-15T18:27:00;11.50;99.90
27896;DHT22;15241;48.374;10.876;2022-11-15T18:32:00;11.50;99.90
27896;DHT22;15241;48.374;10.876;2022-11-15T18:36:59;11.40;99.90
27896;DHT22;15241;48.374;10.876;2022-11-15T18:41:58;11.40;99.90
27896;DHT22;15241;48.374;10.876;2022-11-15T18:46:57;11.40;99.90
27896;DHT22;15241;48.374;10.876;2022-11-15T18:51:56;11.50;99.90
27896;DHT22;15241;48.374;10.876;2022-11-15T18:56:55;11.40;99.90
27896;DHT22;15241;48.374;10.876;2022-11-15T19:01:53;11.40;99.90
27896;DHT22;15241;48.374;10.876;2022-11-15T19:06:52;11.30;99.90
27896;DHT22;15241;48.374;10.876;2022-11-15T19:11:51;11.40;99.90
27896;DHT22;15241;48.374;10.876;2022-11-15T19:16:50;11.30;99.90
27896;DHT22;15241;48.374;10.876;2022-11-15T19:21:50;11.30;99.90
27896;DHT22;15241;48.374;10.876;2022-11-15T19:26:49;11.30;99.90
27896;DHT22;15241;48.374;10.876;2022-11-15T19:31:48;11.20;99.90
27896;DHT22;15241;48.374;10.876;2022-11-15T19:36:47;11.20;99.90
27896;DHT22;15241;48.374;10.876;2022-11-15T19:41:45;11.20;99.90
27896;DHT22;15241;48.374;10.876;2022-11-15T19:46:44;11.10;99.90
27896;DHT22;15241;48.374;10.876;2022-11-15T19:51:43;11.10;99.90
27896;DHT22;15241;48.374;10.876;2022-11-15T19:56:42;11.00;99.90
27896;DHT22;15241;48.374;10.876;2022-11-15T20:01:41;11.00;99.90
27896;DHT22;15241;48.374;10.876;2022-11-15T20:06:41;11.00;99.90
27896;DHT22;15241;48.374;10.876;2022-11-15T20:11:40;11.00;99.90
27896;DHT22;15241;48.374;10.876;2022-11-15T20:16:41;10.90;99.90
27896;DHT22;15241;48.374;10.876;2022-11-15T20:21:40;10.90;99.90
27896;DHT22;15241;48.374;10.876;2022-11-15T20:26:39;10.90;99.90
27896;DHT22;15241;48.374;10.876;2022-11-15T20:31:38;10.90;99.90
27896;DHT22;15241;48.374;10.876;2022-11-15T20:36:37;10.90;99.90
27896;DHT22;15241;48.374;10.876;2022-11-15T20:41:36;10.90;99.90
27896;DHT22;15241;48.374;10.876;2022-11-15T20:46:35;10.80;99.90
27896;DHT22;15241;48.374;10.876;2022-11-15T20:51:34;10.80;99.90
27896;DHT22;15241;48.374;10.876;2022-11-15T20:56:33;10.80;99.90
27896;DHT22;15241;48.374;10.876;2022-11-15T21:01:32;10.80;99.90
27896;DHT22;15241;48.374;10.876;2022-11-15T21:06:31;10.70;99.90
27896;DHT22;15241;48.374;10.876;2022-11-15T21:11:30;10.70;99.90
27896;DHT22;15241;48.374;10.876;2022-11-15T21:16:29;10.70;99.90
27896;DHT22;15241;48.374;10.876;2022-11-15T21:21:28;10.60;99.90
27896;DHT22;15241;48.374;10.876;2022-11-15T21:26:26;10.60;99.90
27896;DHT22;15241;48.374;10.876;2022-11-15T21:31:26;10.60;99.90
27896;DHT22;15241;48.374;10.876;2022-11-15T21:36:25;10.50;99.90
27896;DHT22;15241;48.374;10.876;2022-11-15T21:41:24;10.40;99.90
27896;DHT22;15241;48.374;10.876;2022-11-15T21:46:23;10.40;99.90
27896;DHT22;15241;48.374;10.876;2022-11-15T21:51:22;10.30;99.90
27896;DHT22;15241;48.374;10.876;2022-11-15T21:56:21;10.20;99.90
27896;DHT22;15241;48.374;10.876;2022-11-15T22:01:20;10.20;99.90
27896;DHT22;15241;48.374;10.876;2022-11-15T22:06:20;10.10;99.90
27896;DHT22;15241;48.374;10.876;2022-11-15T22:11:19;10.00;99.90
27896;DHT22;15241;48.374;10.876;2022-11-15T22:16:18;9.90;99.90
27896;DHT22;15241;48.374;10.876;2022-11-15T22:21:17;9.90;99.90
27896;DHT22;15241;48.374;10.876;2022-11-15T22:26:17;9.90;99.90
27896;DHT22;15241;48.374;10.876;2022-11-15T22:31:17;9.90;99.90
27896;DHT22;15241;48.374;10.876;2022-11-15T22:36:16;9.90;99.90
27896;DHT22;15241;48.374;10.876;2022-11-15T22:41:15;9.90;99.90
27896;DHT22;15241;48.374;10.876;2022-11-15T22:46:14;9.90;99.90
27896;DHT22;15241;48.374;10.876;2022-11-15T22:51:13;9.90;99.90
27896;DHT22;15241;48.374;10.876;2022-11-15T22:56:12;10.00;99.90
27896;DHT22;15241;48.374;10.876;2022-11-15T23:01:18;10.00;99.90
27896;DHT22;15241;48.374;10.876;2022-11-15T23:06:17;10.00;99.90
27896;DHT22;15241;48.374;10.876;2022-11-15T23:11:16;10.00;99.90
27896;DHT22;15241;48.374;10.876;2022-11-15T23:16:15;10.00;99.90
27896;DHT22;15241;48.374;10.876;2022-11-15T23:21:16;10.10;99.90
27896;DHT22;15241;48.374;10.876;2022-11-15T23:26:15;10.00;99.90
27896;DHT22;15241;48.374;10.876;2022-11-15T23:31:14;10.10;99.90
27896;DHT22;15241;48.374;10.876;2022-11-15T23:36:13;10.10;99.90
27896;DHT22;15241;48.374;10.876;2022-11-15T23:41:13;10.10;99.90
27896;DHT22;15241;48.374;10.876;2022-11-15T23:46:12;10.10;99.90
27896;DHT22;15241;48.374;10.876;2022-11-15T23:51:11;10.20;99.90
27896;DHT22;15241;48.374;10.876;2022-11-15T23:56:11;10.20;99.90
